Etusivu
METAR-TAF:

METAR-TAF

Lentoasemat :

Taškent, Uzbekistan

Leveyspiiri: 41-16N, Pituuspiiri: 069-16E, korkeus merenpinnasta: 489 m

Tämänhetkinen sää

Tämä raportti tehtiin 34 minuuttia sitten, kello 09.30 UTC
Tuuli 8 kn pohjoisesta, vaihdellen luoteen ja pohjoisen/koillisen välillä
Lämpötila 20°C
Kosteus 30%
Ilmanpaine 1015 hPa
Näkyvyys 10 km tai enemmän
ei pilviä alle 1500 m:ssä eikä cumulonimbus-pilviä

METAR: UTTT 220930Z 35008KT 310V020 CAVOK 20/02 Q1015 R08R/CLRD70 NOSIG

Aika: 15:04 (10:04 UTC)

Sääennuste

Tämä raportti tehtiin 5 tuntia ja 4 minuuttia sitten, kello 05.00 UTC
Ennuste voimassa 22. päivästä klo 06 UTC - 23. päivään klo 06 UTC
Tuuli 2 kn eri suunnista
Näkyvyys: 7000 m
Ajoittain
22. päivästä klo 12 UTC - 22. päivään klo 21 UTC
Näkyvyys: 3000 m
utua, savua

TAF: UTTT 220500Z 2206/2306 VRB02KT 7000 NSC TEMPO 2212/2221 3000 BR FU

Säähavainnot ja -ennusteet yli 4000 lentoasemalta (METAR- ja TAF-raportit).

Käytössä olevat sääasemat on merkitty karttaan keltaisilla ja punaisilla pisteillä.

Aseta hiiri pisteen päälle nähdäksesi sääaseman nimen.

Klikkaa sitten nähdäksesi säähavainnot ja -ennusteet.

Kartan vaihtaminen: klikkaa mustalla rastilla varustettuja vihreitä pisteitä, niin voit zoomata sisään; viivalla varustettua vihreää pistettä, niin voit zoomata ulos tai vihreitä nuolia, niin pääset viereisille kartoille.


METAR-TAF: